Illusion — ZJL7875 — position and weather

sailwx.info

Track history (hours):
 
Tides and Currents Weather Stations Pressure Air Temp Water Temp Dewpoint Dewpoint Depression Visibility Wind Speed Wind Dir Waves Ship Positions

Illusion

Last reported at 2018-Apr-19 19:25 UTC. Time now 2018-Apr-20 05:03 UTC.
Position N 26°16' W 076°58'.

Length 22 m; draft 2.1 m.

Type: Sailing vessel. MMSI: 378111398.

Date/timePositionNaut miles runAvg speedWind from/ knotsBaromVisibWave heightAir tempDewpointWater temp
2018-Apr-19 19:25N 26°16' W 076°58'4 8.7
2018-Apr-19 19:00N 26°20' W 076°57'4 8.3
2018-Apr-19 18:30N 26°24' W 076°56'4 8.2
2018-Apr-19 18:01N 26°28' W 076°56'4 8.1
2018-Apr-19 17:30N 26°32' W 076°56'3 6.3
2018-Apr-19 17:00N 26°35' W 076°57'3 5.1
2018-Apr-19 16:30N 26°34' W 076°60'3 1.2
2018-Apr-19 13:58N 26°33' W 077°03'0 0.0
2018-Apr-19 13:28N 26°33' W 077°03'0 0.0
2018-Apr-19 12:58N 26°33' W 077°03'0 0.0
2018-Apr-19 12:30N 26°33' W 077°03'0 0.0
2018-Apr-19 12:00N 26°33' W 077°03'0 0.0
2018-Apr-19 11:30N 26°33' W 077°03'0 0.0
2018-Apr-19 11:00N 26°33' W 077°03'0 0.0
2018-Apr-19 10:30N 26°33' W 077°03'0 0.0
2018-Apr-19 10:00N 26°33' W 077°03'0 0.0
2018-Apr-19 09:30N 26°33' W 077°03'0 0.0
2018-Apr-19 09:00N 26°33' W 077°03'0 0.0
2018-Apr-19 08:30N 26°33' W 077°03'0 0.0
2018-Apr-19 08:00N 26°33' W 077°03'0 0.0
2018-Apr-19 07:27N 26°33' W 077°03'0 0.0
2018-Apr-19 07:00N 26°33' W 077°03'0 0.0
2018-Apr-19 06:30N 26°33' W 077°03'0 0.0
2018-Apr-19 06:00N 26°33' W 077°03'0 0.0
2018-Apr-19 05:30N 26°33' W 077°03'0 0.0
2018-Apr-19 05:00N 26°33' W 077°03'0 0.0
2018-Apr-19 04:30N 26°33' W 077°03'0 0.0
2018-Apr-19 04:00N 26°33' W 077°03'0 0.0
2018-Apr-19 03:30N 26°33' W 077°03'0 0.0
2018-Apr-19 03:00N 26°33' W 077°03'0 0.0
2018-Apr-19 02:30N 26°33' W 077°03'0 0.0
2018-Apr-19 02:00N 26°33' W 077°03'0 0.0
2018-Apr-19 01:30N 26°33' W 077°03'0 0.0
2018-Apr-19 01:00N 26°33' W 077°03'0 0.0
2018-Apr-19 00:30N 26°33' W 077°03'0 0.0
2018-Apr-19 00:00N 26°33' W 077°03'0 0.0
2018-Apr-18 23:29N 26°33' W 077°03'0 0.0
2018-Apr-18 22:59N 26°33' W 077°03'0 0.0
2018-Apr-18 22:29N 26°33' W 077°03'0 0.0
2018-Apr-18 21:59N 26°33' W 077°03'0 0.0
2018-Apr-18 21:29N 26°33' W 077°03'0 0.0
2018-Apr-18 20:59N 26°33' W 077°03'0 0.0
2018-Apr-18 20:30N 26°33' W 077°03'0 0.0
2018-Apr-18 20:00N 26°33' W 077°03'0 0.0
2018-Apr-18 19:30N 26°33' W 077°03'0 0.0
2018-Apr-18 19:00N 26°33' W 077°03'0 0.0
2018-Apr-18 18:30N 26°33' W 077°03'0 0.0
2018-Apr-18 18:00N 26°33' W 077°03'0 0.0
2018-Apr-18 17:30N 26°33' W 077°03'0 0.0
2018-Apr-18 17:00N 26°33' W 077°03'0 0.0
2018-Apr-18 16:30N 26°33' W 077°03'0 0.3
2018-Apr-18 16:00N 26°33' W 077°03'3 5.3
2018-Apr-18 15:30N 26°35' W 077°01'4 7.7
2018-Apr-18 15:00N 26°37' W 077°04'4 7.9
2018-Apr-18 14:30N 26°40' W 077°07'4 7.8
2018-Apr-18 14:00N 26°42' W 077°11'4 7.5
2018-Apr-18 13:30N 26°43' W 077°15'6 3.0
2018-Apr-18 11:35N 26°47' W 077°20'0 0.0
2018-Apr-18 11:18N 26°47' W 077°20'7 0.3
2018-Apr-17 12:56N 26°43' W 077°14'2 4.5
2018-Apr-17 12:30N 26°41' W 077°14'3 5.1
2018-Apr-17 12:00N 26°40' W 077°17'1 1.1
2018-Apr-17 11:26N 26°40' W 077°17'0 0.0
2018-Apr-17 10:32N 26°40' W 077°17'0 0.0
2018-Apr-17 10:14N 26°40' W 077°17'0 0.0
2018-Apr-17 09:50N 26°40' W 077°17'0 0.0
2018-Apr-17 09:26N 26°40' W 077°17'0 0.0
2018-Apr-17 08:56N 26°40' W 077°17'0 0.0
2018-Apr-17 06:56N 26°40' W 077°17'0 0.0
2018-Apr-17 06:13N 26°40' W 077°17'0 0.0
2018-Apr-17 05:56N 26°40' W 077°17'0 0.0
2018-Apr-17 05:20N 26°40' W 077°17'0 0.0
2018-Apr-17 04:38N 26°40' W 077°17'0 0.0
2018-Apr-17 04:26N 26°40' W 077°17'0 0.0
2018-Apr-16 20:50N 26°40' W 077°17'0 0.0
2018-Apr-16 20:25N 26°40' W 077°17'0 0.0
2018-Apr-16 19:56N 26°40' W 077°17'0 0.0
2018-Apr-16 19:02N 26°40' W 077°17'0 0.0
2018-Apr-16 18:59N 26°40' W 077°17'0 0.0
2018-Apr-16 18:19N 26°40' W 077°17'0 0.0
2018-Apr-16 16:07N 26°40' W 077°17'0 0.0
2018-Apr-16 15:43N 26°40' W 077°17'0 0.0
2018-Apr-16 15:19N 26°40' W 077°17'0 0.0
2018-Apr-16 14:49N 26°40' W 077°17'0 0.0
2018-Apr-16 14:25N 26°40' W 077°17'0 0.0
2018-Apr-16 13:43N 26°40' W 077°17'0 0.0
2018-Apr-16 13:25N 26°40' W 077°17'0 0.0
2018-Apr-16 12:56N 26°40' W 077°17'0 0.0
2018-Apr-16 12:28N 26°40' W 077°17'0 0.0
2018-Apr-16 11:58N 26°40' W 077°17'0 0.0
2018-Apr-16 11:04N 26°40' W 077°17'0 0.0
2018-Apr-16 10:49N 26°40' W 077°17'0 0.0
2018-Apr-16 10:25N 26°40' W 077°17'0 0.0
2018-Apr-16 09:58N 26°40' W 077°17'0 0.0
2018-Apr-16 07:32N 26°40' W 077°17'0 0.0
2018-Apr-16 07:23N 26°40' W 077°17'0 0.0
2018-Apr-16 06:02N 26°40' W 077°17'0 0.1
2018-Apr-16 05:56N 26°40' W 077°17'0 0.0
2018-Apr-16 05:25N 26°40' W 077°17'0 0.0
2018-Apr-16 04:50N 26°40' W 077°17'0 0.0
2018-Apr-16 04:25N 26°40' W 077°17'0 0.0
2018-Apr-16 03:55N 26°40' W 077°17'0 0.0
2018-Apr-16 03:26N 26°40' W 077°17'0 0.0
2018-Apr-16 02:53N 26°40' W 077°17'0 0.0
2018-Apr-16 02:19N 26°40' W 077°17'0 0.0
2018-Apr-16 00:12N 26°40' W 077°17'0 0.0
2018-Apr-15 23:55N 26°40' W 077°17'0 0.0
2018-Apr-15 23:28N 26°40' W 077°17'0 0.0
2018-Apr-15 22:37N 26°40' W 077°17'0 0.0
2018-Apr-15 22:10N 26°40' W 077°17'0 0.0
2018-Apr-15 21:58N 26°40' W 077°17'0 0.0
2018-Apr-15 21:25N 26°40' W 077°17'0 0.0
2018-Apr-15 20:55N 26°40' W 077°17'0 0.0
2018-Apr-15 19:07N 26°40' W 077°17'0 0.0
2018-Apr-15 18:55N 26°40' W 077°17'0 0.0
2018-Apr-15 15:49N 26°40' W 077°17'0 0.0
2018-Apr-15 15:19N 26°40' W 077°17'0 0.0
2018-Apr-15 14:01N 26°40' W 077°17'0 0.0
2018-Apr-15 13:55N 26°40' W 077°17'0 0.0
2018-Apr-15 13:25N 26°40' W 077°17'0 0.0
2018-Apr-15 12:55N 26°40' W 077°17'0 0.0
2018-Apr-15 11:22N 26°40' W 077°17'0 0.0
2018-Apr-15 10:55N 26°40' W 077°17'0 0.0
2018-Apr-15 10:28N 26°40' W 077°17'0 0.0
2018-Apr-15 09:58N 26°40' W 077°17'0 0.0
2018-Apr-15 09:28N 26°40' W 077°17'0 0.0
2018-Apr-15 08:58N 26°40' W 077°17'0 0.0
2018-Apr-15 08:28N 26°40' W 077°17'0 0.0
2018-Apr-15 07:58N 26°40' W 077°17'0 0.0
2018-Apr-15 07:25N 26°40' W 077°17'0 0.0
2018-Apr-15 06:55N 26°40' W 077°17'0 0.0
2018-Apr-15 06:25N 26°40' W 077°17'0 0.0
2018-Apr-15 05:55N 26°40' W 077°17'0 0.0
2018-Apr-15 05:13N 26°40' W 077°17'0 0.0
2018-Apr-15 04:46N 26°40' W 077°17'0 0.0
2018-Apr-15 04:25N 26°40' W 077°17'0 0.0
2018-Apr-15 03:52N 26°40' W 077°17'0 0.0
2018-Apr-15 03:25N 26°40' W 077°17'0 0.0
2018-Apr-15 02:55N 26°40' W 077°17'0 0.0
2018-Apr-15 02:25N 26°40' W 077°17'0 0.0
2018-Apr-15 01:55N 26°40' W 077°17'0 0.0
2018-Apr-15 01:28N 26°40' W 077°17'0 0.0
2018-Apr-15 00:55N 26°40' W 077°17'0 0.0
2018-Apr-15 00:25N 26°40' W 077°17'0 0.0
2018-Apr-15 00:00N 26°40' W 077°17'0 0.0
2018-Apr-14 23:30N 26°40' W 077°17'0 0.0
2018-Apr-14 23:00N 26°40' W 077°17'0 0.0
2018-Apr-14 22:30N 26°40' W 077°17'0 0.0
2018-Apr-14 22:00N 26°40' W 077°17'1 2.1
2018-Apr-14 21:30N 26°39' W 077°16'4 8.2
2018-Apr-14 21:00N 26°38' W 077°12'4 7.6
2018-Apr-14 20:30N 26°36' W 077°08'4 8.4
2018-Apr-14 20:00N 26°34' W 077°04'3 6.4
2018-Apr-14 19:30N 26°33' W 077°01'2 3.9
2018-Apr-14 19:00N 26°33' W 077°03'0 0.0
2018-Apr-14 18:30N 26°33' W 077°03'0 0.0
2018-Apr-14 18:00N 26°33' W 077°03'0 0.0
2018-Apr-14 17:30N 26°33' W 077°03'0 0.0
2018-Apr-14 17:00N 26°33' W 077°03'0 0.0
2018-Apr-14 16:30N 26°33' W 077°03'0 0.0
2018-Apr-14 16:00N 26°33' W 077°03'0 0.0
2018-Apr-14 15:30N 26°33' W 077°03'0 0.0
2018-Apr-14 15:00N 26°33' W 077°03'0 0.0
2018-Apr-14 14:30N 26°33' W 077°03'0 0.0
2018-Apr-14 14:00N 26°33' W 077°03'0 0.0
2018-Apr-14 13:27N 26°33' W 077°03'0 0.0
2018-Apr-14 13:00N 26°33' W 077°03'0 0.0
2018-Apr-14 12:30N 26°33' W 077°03'0 0.0
2018-Apr-14 12:00N 26°33' W 077°03'0 0.0
2018-Apr-14 11:30N 26°33' W 077°03'0 0.0
2018-Apr-14 11:00N 26°33' W 077°03'0 0.0
2018-Apr-14 10:30N 26°33' W 077°03'0 0.0
2018-Apr-14 10:00N 26°33' W 077°03'0 0.0
2018-Apr-14 09:30N 26°33' W 077°03'0 0.0
2018-Apr-14 09:00N 26°33' W 077°03'0 0.0
2018-Apr-14 08:30N 26°33' W 077°03'0 0.0
2018-Apr-14 08:00N 26°33' W 077°03'0 0.0
2018-Apr-14 07:30N 26°33' W 077°03'0 0.0
2018-Apr-14 07:00N 26°33' W 077°03'0 0.0
2018-Apr-14 06:30N 26°33' W 077°03'0 0.0
2018-Apr-14 06:00N 26°33' W 077°03'0 0.0
2018-Apr-14 05:30N 26°33' W 077°03'0 0.0
2018-Apr-14 05:00N 26°33' W 077°03'0 0.0
2018-Apr-14 04:30N 26°33' W 077°03'0 0.0
2018-Apr-14 04:00N 26°33' W 077°03'0 0.0
2018-Apr-14 03:30N 26°33' W 077°03'0 0.0
2018-Apr-14 03:00N 26°33' W 077°03'0 0.0
2018-Apr-14 02:30N 26°33' W 077°03'0 0.0
2018-Apr-14 02:00N 26°33' W 077°03'0 0.0
2018-Apr-14 01:30N 26°33' W 077°03'0 0.0
2018-Apr-14 01:00N 26°33' W 077°03'0 0.0
2018-Apr-14 00:30N 26°33' W 077°03'0 0.0
2018-Apr-14 00:00N 26°33' W 077°03'0 0.0
2018-Apr-13 23:30N 26°33' W 077°03'0 0.0
2018-Apr-13 23:00N 26°33' W 077°03'0 0.0
2018-Apr-13 22:30N 26°33' W 077°03'0 0.0
2018-Apr-13 22:00N 26°33' W 077°03'0 0.0
2018-Apr-13 21:30N 26°33' W 077°03'0 0.0
2018-Apr-13 21:00N 26°33' W 077°03'0 0.0
2018-Apr-13 20:30N 26°33' W 077°03'0 0.0
2018-Apr-13 20:00N 26°33' W 077°03'0 0.0
2018-Apr-13 19:30N 26°33' W 077°03'0 0.0
2018-Apr-13 19:00N 26°33' W 077°03'0 0.0
2018-Apr-13 18:30N 26°33' W 077°03'0 0.0
2018-Apr-13 18:00N 26°33' W 077°03'0 0.0
2018-Apr-13 17:30N 26°33' W 077°03'0 0.0
2018-Apr-13 16:57N 26°33' W 077°03'0 0.0
2018-Apr-13 16:30N 26°33' W 077°03'0 0.0
2018-Apr-13 16:00N 26°33' W 077°03'0 0.0
2018-Apr-13 15:30N 26°33' W 077°03'0 0.0
2018-Apr-13 15:00N 26°33' W 077°03'0 0.0
2018-Apr-13 14:30N 26°33' W 077°03'0 0.0
2018-Apr-13 14:00N 26°33' W 077°03'0 0.0
2018-Apr-13 13:30N 26°33' W 077°03'0 0.0
2018-Apr-13 13:00N 26°33' W 077°03'0 0.0
2018-Apr-13 12:30N 26°33' W 077°03'0 0.0
2018-Apr-13 12:00N 26°33' W 077°03'0 0.0
2018-Apr-13 11:30N 26°33' W 077°03'0 0.0
2018-Apr-13 11:00N 26°33' W 077°03'0 0.0
2018-Apr-13 10:30N 26°33' W 077°03'0 0.0
2018-Apr-13 10:00N 26°33' W 077°03'0 0.0
2018-Apr-13 09:30N 26°33' W 077°03'0 0.0
2018-Apr-13 09:00N 26°33' W 077°03'0 0.0
2018-Apr-13 08:30N 26°33' W 077°03'0 0.0
2018-Apr-13 08:00N 26°33' W 077°03'0 0.0
2018-Apr-13 07:30N 26°33' W 077°03'0 0.0
2018-Apr-13 07:00N 26°33' W 077°03'0 0.0
2018-Apr-13 06:27N 26°33' W 077°03'0 0.0
2018-Apr-13 06:00N 26°33' W 077°03'0 0.0
2018-Apr-13 05:30N 26°33' W 077°03'0 0.0
2018-Apr-13 04:57N 26°33' W 077°03'0 0.0
2018-Apr-13 04:30N 26°33' W 077°03'0 0.0
2018-Apr-13 04:00N 26°33' W 077°03'0 0.0
2018-Apr-13 03:27N 26°33' W 077°03'0 0.0
2018-Apr-13 03:00N 26°33' W 077°03'0 0.0
2018-Apr-13 02:27N 26°33' W 077°03'0 0.0
2018-Apr-13 02:00N 26°33' W 077°03'0 0.0
2018-Apr-13 01:30N 26°33' W 077°03'0 0.0
2018-Apr-13 01:00N 26°33' W 077°03'0 0.0
2018-Apr-13 00:30N 26°33' W 077°03'0 0.0
2018-Apr-13 00:00N 26°33' W 077°03'0 0.0
2018-Apr-12 23:30N 26°33' W 077°03'0 0.0
2018-Apr-12 23:00N 26°33' W 077°03'0 0.0
2018-Apr-12 22:30N 26°33' W 077°03'0 0.0
2018-Apr-12 22:00N 26°33' W 077°03'0 0.0
2018-Apr-12 21:30N 26°33' W 077°03'0 0.0
2018-Apr-12 21:00N 26°33' W 077°03'0 0.0
2018-Apr-12 20:30N 26°33' W 077°03'0 0.0
2018-Apr-12 20:00N 26°33' W 077°03'0 0.0
2018-Apr-12 19:30N 26°33' W 077°03'0 0.0
2018-Apr-12 19:00N 26°33' W 077°03'0 0.0
2018-Apr-12 18:30N 26°33' W 077°03'0 0.0
2018-Apr-12 18:00N 26°33' W 077°03'0 0.0
2018-Apr-12 17:30N 26°33' W 077°03'0 0.0
2018-Apr-12 17:00N 26°33' W 077°03'0 0.0
2018-Apr-12 16:30N 26°33' W 077°03'0 0.0
2018-Apr-12 16:00N 26°33' W 077°03'0 0.0
2018-Apr-12 15:30N 26°33' W 077°03'0 0.0
2018-Apr-12 15:00N 26°33' W 077°03'0 0.0
2018-Apr-12 14:30N 26°33' W 077°03'0 0.0
2018-Apr-12 14:00N 26°33' W 077°03'0 0.0
2018-Apr-12 13:30N 26°33' W 077°03'0 0.0
2018-Apr-12 13:00N 26°33' W 077°03'0 0.0
2018-Apr-12 12:30N 26°33' W 077°03'0 0.0
2018-Apr-12 11:57N 26°33' W 077°03'0 0.0
2018-Apr-12 11:30N 26°33' W 077°03'0 0.0
2018-Apr-12 11:00N 26°33' W 077°03'0 0.0
2018-Apr-12 10:30N 26°33' W 077°03'0 0.0
2018-Apr-12 10:00N 26°33' W 077°03'0 0.0
2018-Apr-12 09:30N 26°33' W 077°03'0 0.0
2018-Apr-12 09:00N 26°33' W 077°03'0 0.0
2018-Apr-12 08:30N 26°33' W 077°03'0 0.0
2018-Apr-12 08:00N 26°33' W 077°03'0 0.0
2018-Apr-12 07:30N 26°33' W 077°03'0 0.0
2018-Apr-12 07:00N 26°33' W 077°03'0 0.0
2018-Apr-12 06:30N 26°33' W 077°03'0 0.0
2018-Apr-12 06:00N 26°33' W 077°03'0 0.0
2018-Apr-12 05:30N 26°33' W 077°03'0 0.0
2018-Apr-12 05:00N 26°33' W 077°03'0 0.0
2018-Apr-12 04:30N 26°33' W 077°03'0 0.0
2018-Apr-12 04:00N 26°33' W 077°03'0 0.0
2018-Apr-12 03:30N 26°33' W 077°03'0 0.0
2018-Apr-12 03:00N 26°33' W 077°03'0 0.0
2018-Apr-12 02:30N 26°33' W 077°03'0 0.0
2018-Apr-12 02:00N 26°33' W 077°03'0 0.0
2018-Apr-12 01:30N 26°33' W 077°03'0 0.0
2018-Apr-12 00:59N 26°33' W 077°03'0 0.0
2018-Apr-12 00:30N 26°33' W 077°03'0 0.0
2018-Apr-11 23:57N 26°33' W 077°03'0 0.0
2018-Apr-11 23:30N 26°33' W 077°03'0 0.0
2018-Apr-11 23:00N 26°33' W 077°03'0 0.0
2018-Apr-11 22:30N 26°33' W 077°03'0 0.0
2018-Apr-11 22:00N 26°33' W 077°03'0 0.0
2018-Apr-11 21:30N 26°33' W 077°03'0 0.0
2018-Apr-11 21:00N 26°33' W 077°03'0 0.0
2018-Apr-11 20:30N 26°33' W 077°03'0 0.0
2018-Apr-11 20:00N 26°33' W 077°03'0 0.0
2018-Apr-11 19:30N 26°33' W 077°03'0 0.0
2018-Apr-11 19:00N 26°33' W 077°03'0 0.0
2018-Apr-11 18:30N 26°33' W 077°03'0 0.0
2018-Apr-11 18:00N 26°33' W 077°03'0 0.0
2018-Apr-11 17:26N 26°33' W 077°03'0 0.0
2018-Apr-11 17:00N 26°33' W 077°03'0 0.0
2018-Apr-11 16:30N 26°33' W 077°03'0 0.0
2018-Apr-11 16:00N 26°33' W 077°03'0 0.0
2018-Apr-11 15:29N 26°33' W 077°03'0 0.0
2018-Apr-11 15:00N 26°33' W 077°03'0 0.0
2018-Apr-11 14:30N 26°33' W 077°03'0 0.0
2018-Apr-11 14:00N 26°33' W 077°03'0 0.0
2018-Apr-11 13:30N 26°33' W 077°03'0 0.0
2018-Apr-11 13:00N 26°33' W 077°03'0 0.0
2018-Apr-11 12:29N 26°33' W 077°03'0 0.0
2018-Apr-11 11:59N 26°33' W 077°03'0 0.0
2018-Apr-11 11:29N 26°33' W 077°03'0 0.0
2018-Apr-11 11:00N 26°33' W 077°03'0 0.0
2018-Apr-11 10:29N 26°33' W 077°03'0 0.0
2018-Apr-11 09:59N 26°33' W 077°03'0 0.0
2018-Apr-11 09:29N 26°33' W 077°03'0 0.0
2018-Apr-11 09:00N 26°33' W 077°03'0 0.0
2018-Apr-11 08:29N 26°33' W 077°03'0 0.0
2018-Apr-11 08:00N 26°33' W 077°03'0 0.0
2018-Apr-11 07:30N 26°33' W 077°03'0 0.0
2018-Apr-11 06:59N 26°33' W 077°03'0 0.0
2018-Apr-11 06:30N 26°33' W 077°03'0 0.0
2018-Apr-11 05:59N 26°33' W 077°03'0 0.0
2018-Apr-11 05:30N 26°33' W 077°03'0 0.0
2018-Apr-11 05:00N 26°33' W 077°03'0 0.0
2018-Apr-11 04:29N 26°33' W 077°03'0 0.0
2018-Apr-11 03:59N 26°33' W 077°03'0 0.0
2018-Apr-11 03:29N 26°33' W 077°03'0 0.0
2018-Apr-11 02:59N 26°33' W 077°03'0 0.0
2018-Apr-11 02:29N 26°33' W 077°03'0 0.0
2018-Apr-11 01:59N 26°33' W 077°03'0 0.0
2018-Apr-11 01:29N 26°33' W 077°03'0 0.0
2018-Apr-11 01:00N 26°33' W 077°03'0 0.0
2018-Apr-11 00:30N 26°33' W 077°03'0 0.0
2018-Apr-11 00:00N 26°33' W 077°03'0 0.0
2018-Apr-10 23:30N 26°33' W 077°03'0 0.0
2018-Apr-10 23:00N 26°33' W 077°03'0 0.0
2018-Apr-10 22:30N 26°33' W 077°03'0 0.0
2018-Apr-10 22:00N 26°33' W 077°03'0 0.0
2018-Apr-10 21:30N 26°33' W 077°03'0 0.0
2018-Apr-10 21:00N 26°33' W 077°03'0 0.0
2018-Apr-10 20:30N 26°33' W 077°03'0 0.0
2018-Apr-10 20:00N 26°33' W 077°03'0 0.0
2018-Apr-10 19:30N 26°33' W 077°03'0 0.0
2018-Apr-10 18:59N 26°33' W 077°03'0 0.0
2018-Apr-10 18:30N 26°33' W 077°03'0 0.0
2018-Apr-10 18:00N 26°33' W 077°03'0 0.0
2018-Apr-10 17:30N 26°33' W 077°03'0 0.0
2018-Apr-10 17:00N 26°33' W 077°03'0 0.0
2018-Apr-10 16:30N 26°33' W 077°03'0 0.0
2018-Apr-10 16:00N 26°33' W 077°03'0 0.0
2018-Apr-10 15:30N 26°33' W 077°03'0 0.0
2018-Apr-10 15:00N 26°33' W 077°03'0 0.0
2018-Apr-10 14:30N 26°33' W 077°03'0 0.0
2018-Apr-10 14:00N 26°33' W 077°03'0 0.0
2018-Apr-10 13:29N 26°33' W 077°03'0 0.0
2018-Apr-10 13:00N 26°33' W 077°03'0 0.0
2018-Apr-10 12:30N 26°33' W 077°03'0 0.0
2018-Apr-10 12:00N 26°33' W 077°03'0 0.0
2018-Apr-10 11:30N 26°33' W 077°03'0 0.0
2018-Apr-10 11:00N 26°33' W 077°03'0 0.0
2018-Apr-10 10:30N 26°33' W 077°03'0 0.0
2018-Apr-10 10:00N 26°33' W 077°03'0 0.0
2018-Apr-10 09:30N 26°33' W 077°03'0 0.0
2018-Apr-10 09:00N 26°33' W 077°03'0 0.0
2018-Apr-10 08:30N 26°33' W 077°03'0 0.0
2018-Apr-10 07:58N 26°33' W 077°03'0 0.0
2018-Apr-10 07:30N 26°33' W 077°03'0 0.0
2018-Apr-10 07:00N 26°33' W 077°03'0 0.0
2018-Apr-10 06:30N 26°33' W 077°03'0 0.0
2018-Apr-10 06:00N 26°33' W 077°03'0 0.0
2018-Apr-10 05:29N 26°33' W 077°03'0 0.0
2018-Apr-10 05:00N 26°33' W 077°03'0 0.0
2018-Apr-10 04:30N 26°33' W 077°03'0 0.0
2018-Apr-10 04:00N 26°33' W 077°03'0 0.0
2018-Apr-10 03:30N 26°33' W 077°03'0 0.0
2018-Apr-10 03:00N 26°33' W 077°03'0 0.0
2018-Apr-10 02:30N 26°33' W 077°03'0 0.0
2018-Apr-10 01:59N 26°33' W 077°03'0 0.0
2018-Apr-10 01:30N 26°33' W 077°03'0 0.0
2018-Apr-10 01:00N 26°33' W 077°03'0 0.0
2018-Apr-10 00:30N 26°33' W 077°03'0 0.0
2018-Apr-10 00:00N 26°33' W 077°03'0 0.0
2018-Apr-09 23:30N 26°33' W 077°03'0 0.0
2018-Apr-09 23:00N 26°33' W 077°03'0 0.0
2018-Apr-09 22:30N 26°33' W 077°03'0 0.0
2018-Apr-09 22:00N 26°33' W 077°03'0 0.0
2018-Apr-09 21:30N 26°33' W 077°03'0 0.0
2018-Apr-09 21:00N 26°33' W 077°03'0 0.0
2018-Apr-09 20:30N 26°33' W 077°03'0 0.0
2018-Apr-09 20:00N 26°33' W 077°03'0 0.0
2018-Apr-09 19:29N 26°33' W 077°03'  
Track history (hours):
 
Tides and Currents Weather Stations Pressure Air Temp Water Temp Dewpoint Dewpoint Depression Visibility Wind Speed Wind Dir Waves Ship Positions

Illusion

Last reported at 2018-Apr-19 19:25 UTC. Time now 2018-Apr-20 05:03 UTC.
Position N 26°16' W 076°58'.

Length 22 m; draft 2.1 m.

Type: Sailing vessel. MMSI: 378111398.

Date/timePositionNaut miles runAvg speedWind from/ knotsBaromVisibWave heightAir tempDewpointWater temp
2018-Apr-19 19:25N 26°16' W 076°58'4 8.7
2018-Apr-19 19:00N 26°20' W 076°57'4 8.3
2018-Apr-19 18:30N 26°24' W 076°56'4 8.2
2018-Apr-19 18:01N 26°28' W 076°56'4 8.1
2018-Apr-19 17:30N 26°32' W 076°56'3 6.3
2018-Apr-19 17:00N 26°35' W 076°57'3 5.1
2018-Apr-19 16:30N 26°34' W 076°60'3 1.2
2018-Apr-19 13:58N 26°33' W 077°03'0 0.0
2018-Apr-19 13:28N 26°33' W 077°03'0 0.0
2018-Apr-19 12:58N 26°33' W 077°03'0 0.0
2018-Apr-19 12:30N 26°33' W 077°03'0 0.0
2018-Apr-19 12:00N 26°33' W 077°03'0 0.0
2018-Apr-19 11:30N 26°33' W 077°03'0 0.0
2018-Apr-19 11:00N 26°33' W 077°03'0 0.0
2018-Apr-19 10:30N 26°33' W 077°03'0 0.0
2018-Apr-19 10:00N 26°33' W 077°03'0 0.0
2018-Apr-19 09:30N 26°33' W 077°03'0 0.0
2018-Apr-19 09:00N 26°33' W 077°03'0 0.0
2018-Apr-19 08:30N 26°33' W 077°03'0 0.0
2018-Apr-19 08:00N 26°33' W 077°03'0 0.0
2018-Apr-19 07:27N 26°33' W 077°03'0 0.0
2018-Apr-19 07:00N 26°33' W 077°03'0 0.0
2018-Apr-19 06:30N 26°33' W 077°03'0 0.0
2018-Apr-19 06:00N 26°33' W 077°03'0 0.0
2018-Apr-19 05:30N 26°33' W 077°03'0 0.0
2018-Apr-19 05:00N 26°33' W 077°03'0 0.0
2018-Apr-19 04:30N 26°33' W 077°03'0 0.0
2018-Apr-19 04:00N 26°33' W 077°03'0 0.0
2018-Apr-19 03:30N 26°33' W 077°03'0 0.0
2018-Apr-19 03:00N 26°33' W 077°03'0 0.0
2018-Apr-19 02:30N 26°33' W 077°03'0 0.0
2018-Apr-19 02:00N 26°33' W 077°03'0 0.0
2018-Apr-19 01:30N 26°33' W 077°03'0 0.0
2018-Apr-19 01:00N 26°33' W 077°03'0 0.0
2018-Apr-19 00:30N 26°33' W 077°03'0 0.0
2018-Apr-19 00:00N 26°33' W 077°03'0 0.0
2018-Apr-18 23:29N 26°33' W 077°03'0 0.0
2018-Apr-18 22:59N 26°33' W 077°03'0 0.0
2018-Apr-18 22:29N 26°33' W 077°03'0 0.0
2018-Apr-18 21:59N 26°33' W 077°03'0 0.0
2018-Apr-18 21:29N 26°33' W 077°03'0 0.0
2018-Apr-18 20:59N 26°33' W 077°03'0 0.0
2018-Apr-18 20:30N 26°33' W 077°03'0 0.0
2018-Apr-18 20:00N 26°33' W 077°03'0 0.0
2018-Apr-18 19:30N 26°33' W 077°03'0 0.0
2018-Apr-18 19:00N 26°33' W 077°03'0 0.0
2018-Apr-18 18:30N 26°33' W 077°03'0 0.0
2018-Apr-18 18:00N 26°33' W 077°03'0 0.0
2018-Apr-18 17:30N 26°33' W 077°03'0 0.0
2018-Apr-18 17:00N 26°33' W 077°03'0 0.0
2018-Apr-18 16:30N 26°33' W 077°03'0 0.3
2018-Apr-18 16:00N 26°33' W 077°03'3 5.3
2018-Apr-18 15:30N 26°35' W 077°01'4 7.7
2018-Apr-18 15:00N 26°37' W 077°04'4 7.9
2018-Apr-18 14:30N 26°40' W 077°07'4 7.8
2018-Apr-18 14:00N 26°42' W 077°11'4 7.5
2018-Apr-18 13:30N 26°43' W 077°15'6 3.0
2018-Apr-18 11:35N 26°47' W 077°20'0 0.0
2018-Apr-18 11:18N 26°47' W 077°20'7 0.3
2018-Apr-17 12:56N 26°43' W 077°14'2 4.5
2018-Apr-17 12:30N 26°41' W 077°14'3 5.1
2018-Apr-17 12:00N 26°40' W 077°17'1 1.1
2018-Apr-17 11:26N 26°40' W 077°17'0 0.0
2018-Apr-17 10:32N 26°40' W 077°17'0 0.0
2018-Apr-17 10:14N 26°40' W 077°17'0 0.0
2018-Apr-17 09:50N 26°40' W 077°17'0 0.0
2018-Apr-17 09:26N 26°40' W 077°17'0 0.0
2018-Apr-17 08:56N 26°40' W 077°17'0 0.0
2018-Apr-17 06:56N 26°40' W 077°17'0 0.0
2018-Apr-17 06:13N 26°40' W 077°17'0 0.0
2018-Apr-17 05:56N 26°40' W 077°17'0 0.0
2018-Apr-17 05:20N 26°40' W 077°17'0 0.0
2018-Apr-17 04:38N 26°40' W 077°17'0 0.0
2018-Apr-17 04:26N 26°40' W 077°17'0 0.0
2018-Apr-16 20:50N 26°40' W 077°17'0 0.0
2018-Apr-16 20:25N 26°40' W 077°17'0 0.0
2018-Apr-16 19:56N 26°40' W 077°17'0 0.0
2018-Apr-16 19:02N 26°40' W 077°17'0 0.0
2018-Apr-16 18:59N 26°40' W 077°17'0 0.0
2018-Apr-16 18:19N 26°40' W 077°17'0 0.0
2018-Apr-16 16:07N 26°40' W 077°17'0 0.0
2018-Apr-16 15:43N 26°40' W 077°17'0 0.0
2018-Apr-16 15:19N 26°40' W 077°17'0 0.0
2018-Apr-16 14:49N 26°40' W 077°17'0 0.0
2018-Apr-16 14:25N 26°40' W 077°17'0 0.0
2018-Apr-16 13:43N 26°40' W 077°17'0 0.0
2018-Apr-16 13:25N 26°40' W 077°17'0 0.0
2018-Apr-16 12:56N 26°40' W 077°17'0 0.0
2018-Apr-16 12:28N 26°40' W 077°17'0 0.0
2018-Apr-16 11:58N 26°40' W 077°17'0 0.0
2018-Apr-16 11:04N 26°40' W 077°17'0 0.0
2018-Apr-16 10:49N 26°40' W 077°17'0 0.0
2018-Apr-16 10:25N 26°40' W 077°17'0 0.0
2018-Apr-16 09:58N 26°40' W 077°17'0 0.0
2018-Apr-16 07:32N 26°40' W 077°17'0 0.0
2018-Apr-16 07:23N 26°40' W 077°17'0 0.0
2018-Apr-16 06:02N 26°40' W 077°17'0 0.1
2018-Apr-16 05:56N 26°40' W 077°17'0 0.0
2018-Apr-16 05:25N 26°40' W 077°17'0 0.0
2018-Apr-16 04:50N 26°40' W 077°17'0 0.0
2018-Apr-16 04:25N 26°40' W 077°17'0 0.0
2018-Apr-16 03:55N 26°40' W 077°17'0 0.0
2018-Apr-16 03:26N 26°40' W 077°17'0 0.0
2018-Apr-16 02:53N 26°40' W 077°17'0 0.0
2018-Apr-16 02:19N 26°40' W 077°17'0 0.0
2018-Apr-16 00:12N 26°40' W 077°17'0 0.0
2018-Apr-15 23:55N 26°40' W 077°17'0 0.0
2018-Apr-15 23:28N 26°40' W 077°17'0 0.0
2018-Apr-15 22:37N 26°40' W 077°17'0 0.0
2018-Apr-15 22:10N 26°40' W 077°17'0 0.0
2018-Apr-15 21:58N 26°40' W 077°17'0 0.0
2018-Apr-15 21:25N 26°40' W 077°17'0 0.0
2018-Apr-15 20:55N 26°40' W 077°17'0 0.0
2018-Apr-15 19:07N 26°40' W 077°17'0 0.0
2018-Apr-15 18:55N 26°40' W 077°17'0 0.0
2018-Apr-15 15:49N 26°40' W 077°17'0 0.0
2018-Apr-15 15:19N 26°40' W 077°17'0 0.0
2018-Apr-15 14:01N 26°40' W 077°17'0 0.0
2018-Apr-15 13:55N 26°40' W 077°17'0 0.0
2018-Apr-15 13:25N 26°40' W 077°17'0 0.0
2018-Apr-15 12:55N 26°40' W 077°17'0 0.0
2018-Apr-15 11:22N 26°40' W 077°17'0 0.0
2018-Apr-15 10:55N 26°40' W 077°17'0 0.0
2018-Apr-15 10:28N 26°40' W 077°17'0 0.0
2018-Apr-15 09:58N 26°40' W 077°17'0 0.0
2018-Apr-15 09:28N 26°40' W 077°17'0 0.0
2018-Apr-15 08:58N 26°40' W 077°17'0 0.0
2018-Apr-15 08:28N 26°40' W 077°17'0 0.0
2018-Apr-15 07:58N 26°40' W 077°17'0 0.0
2018-Apr-15 07:25N 26°40' W 077°17'0 0.0
2018-Apr-15 06:55N 26°40' W 077°17'0 0.0
2018-Apr-15 06:25N 26°40' W 077°17'0 0.0
2018-Apr-15 05:55N 26°40' W 077°17'0 0.0
2018-Apr-15 05:13N 26°40' W 077°17'0 0.0
2018-Apr-15 04:46N 26°40' W 077°17'0 0.0
2018-Apr-15 04:25N 26°40' W 077°17'0 0.0
2018-Apr-15 03:52N 26°40' W 077°17'0 0.0
2018-Apr-15 03:25N 26°40' W 077°17'0 0.0
2018-Apr-15 02:55N 26°40' W 077°17'0 0.0
2018-Apr-15 02:25N 26°40' W 077°17'0 0.0
2018-Apr-15 01:55N 26°40' W 077°17'0 0.0
2018-Apr-15 01:28N 26°40' W 077°17'0 0.0
2018-Apr-15 00:55N 26°40' W 077°17'0 0.0
2018-Apr-15 00:25N 26°40' W 077°17'0 0.0
2018-Apr-15 00:00N 26°40' W 077°17'0 0.0
2018-Apr-14 23:30N 26°40' W 077°17'0 0.0
2018-Apr-14 23:00N 26°40' W 077°17'0 0.0
2018-Apr-14 22:30N 26°40' W 077°17'0 0.0
2018-Apr-14 22:00N 26°40' W 077°17'1 2.1
2018-Apr-14 21:30N 26°39' W 077°16'4 8.2
2018-Apr-14 21:00N 26°38' W 077°12'4 7.6
2018-Apr-14 20:30N 26°36' W 077°08'4 8.4
2018-Apr-14 20:00N 26°34' W 077°04'3 6.4
2018-Apr-14 19:30N 26°33' W 077°01'2 3.9
2018-Apr-14 19:00N 26°33' W 077°03'0 0.0
2018-Apr-14 18:30N 26°33' W 077°03'0 0.0
2018-Apr-14 18:00N 26°33' W 077°03'0 0.0
2018-Apr-14 17:30N 26°33' W 077°03'0 0.0
2018-Apr-14 17:00N 26°33' W 077°03'0 0.0
2018-Apr-14 16:30N 26°33' W 077°03'0 0.0
2018-Apr-14 16:00N 26°33' W 077°03'0 0.0
2018-Apr-14 15:30N 26°33' W 077°03'0 0.0
2018-Apr-14 15:00N 26°33' W 077°03'0 0.0
2018-Apr-14 14:30N 26°33' W 077°03'0 0.0
2018-Apr-14 14:00N 26°33' W 077°03'0 0.0
2018-Apr-14 13:27N 26°33' W 077°03'0 0.0
2018-Apr-14 13:00N 26°33' W 077°03'0 0.0
2018-Apr-14 12:30N 26°33' W 077°03'0 0.0
2018-Apr-14 12:00N 26°33' W 077°03'0 0.0
2018-Apr-14 11:30N 26°33' W 077°03'0 0.0
2018-Apr-14 11:00N 26°33' W 077°03'0 0.0
2018-Apr-14 10:30N 26°33' W 077°03'0 0.0
2018-Apr-14 10:00N 26°33' W 077°03'0 0.0
2018-Apr-14 09:30N 26°33' W 077°03'0 0.0
2018-Apr-14 09:00N 26°33' W 077°03'0 0.0
2018-Apr-14 08:30N 26°33' W 077°03'0 0.0
2018-Apr-14 08:00N 26°33' W 077°03'0 0.0
2018-Apr-14 07:30N 26°33' W 077°03'0 0.0
2018-Apr-14 07:00N 26°33' W 077°03'0 0.0
2018-Apr-14 06:30N 26°33' W 077°03'0 0.0
2018-Apr-14 06:00N 26°33' W 077°03'0 0.0
2018-Apr-14 05:30N 26°33' W 077°03'0 0.0
2018-Apr-14 05:00N 26°33' W 077°03'0 0.0
2018-Apr-14 04:30N 26°33' W 077°03'0 0.0
2018-Apr-14 04:00N 26°33' W 077°03'0 0.0
2018-Apr-14 03:30N 26°33' W 077°03'0 0.0
2018-Apr-14 03:00N 26°33' W 077°03'0 0.0
2018-Apr-14 02:30N 26°33' W 077°03'0 0.0
2018-Apr-14 02:00N 26°33' W 077°03'0 0.0
2018-Apr-14 01:30N 26°33' W 077°03'0 0.0
2018-Apr-14 01:00N 26°33' W 077°03'0 0.0
2018-Apr-14 00:30N 26°33' W 077°03'0 0.0
2018-Apr-14 00:00N 26°33' W 077°03'0 0.0
2018-Apr-13 23:30N 26°33' W 077°03'0 0.0
2018-Apr-13 23:00N 26°33' W 077°03'0 0.0
2018-Apr-13 22:30N 26°33' W 077°03'0 0.0
2018-Apr-13 22:00N 26°33' W 077°03'0 0.0
2018-Apr-13 21:30N 26°33' W 077°03'0 0.0
2018-Apr-13 21:00N 26°33' W 077°03'0 0.0
2018-Apr-13 20:30N 26°33' W 077°03'0 0.0
2018-Apr-13 20:00N 26°33' W 077°03'0 0.0
2018-Apr-13 19:30N 26°33' W 077°03'0 0.0
2018-Apr-13 19:00N 26°33' W 077°03'0 0.0
2018-Apr-13 18:30N 26°33' W 077°03'0 0.0
2018-Apr-13 18:00N 26°33' W 077°03'0 0.0
2018-Apr-13 17:30N 26°33' W 077°03'0 0.0
2018-Apr-13 16:57N 26°33' W 077°03'0 0.0
2018-Apr-13 16:30N 26°33' W 077°03'0 0.0
2018-Apr-13 16:00N 26°33' W 077°03'0 0.0
2018-Apr-13 15:30N 26°33' W 077°03'0 0.0
2018-Apr-13 15:00N 26°33' W 077°03'0 0.0
2018-Apr-13 14:30N 26°33' W 077°03'0 0.0
2018-Apr-13 14:00N 26°33' W 077°03'0 0.0
2018-Apr-13 13:30N 26°33' W 077°03'0 0.0
2018-Apr-13 13:00N 26°33' W 077°03'0 0.0
2018-Apr-13 12:30N 26°33' W 077°03'0 0.0
2018-Apr-13 12:00N 26°33' W 077°03'0 0.0
2018-Apr-13 11:30N 26°33' W 077°03'0 0.0
2018-Apr-13 11:00N 26°33' W 077°03'0 0.0
2018-Apr-13 10:30N 26°33' W 077°03'0 0.0
2018-Apr-13 10:00N 26°33' W 077°03'0 0.0
2018-Apr-13 09:30N 26°33' W 077°03'0 0.0
2018-Apr-13 09:00N 26°33' W 077°03'0 0.0
2018-Apr-13 08:30N 26°33' W 077°03'0 0.0
2018-Apr-13 08:00N 26°33' W 077°03'0 0.0
2018-Apr-13 07:30N 26°33' W 077°03'0 0.0
2018-Apr-13 07:00N 26°33' W 077°03'0 0.0
2018-Apr-13 06:27N 26°33' W 077°03'0 0.0
2018-Apr-13 06:00N 26°33' W 077°03'0 0.0
2018-Apr-13 05:30N 26°33' W 077°03'0 0.0
2018-Apr-13 04:57N 26°33' W 077°03'0 0.0
2018-Apr-13 04:30N 26°33' W 077°03'0 0.0
2018-Apr-13 04:00N 26°33' W 077°03'0 0.0
2018-Apr-13 03:27N 26°33' W 077°03'0 0.0
2018-Apr-13 03:00N 26°33' W 077°03'0 0.0
2018-Apr-13 02:27N 26°33' W 077°03'0 0.0
2018-Apr-13 02:00N 26°33' W 077°03'0 0.0
2018-Apr-13 01:30N 26°33' W 077°03'0 0.0
2018-Apr-13 01:00N 26°33' W 077°03'0 0.0
2018-Apr-13 00:30N 26°33' W 077°03'0 0.0
2018-Apr-13 00:00N 26°33' W 077°03'0 0.0
2018-Apr-12 23:30N 26°33' W 077°03'0 0.0
2018-Apr-12 23:00N 26°33' W 077°03'0 0.0
2018-Apr-12 22:30N 26°33' W 077°03'0 0.0
2018-Apr-12 22:00N 26°33' W 077°03'0 0.0
2018-Apr-12 21:30N 26°33' W 077°03'0 0.0
2018-Apr-12 21:00N 26°33' W 077°03'0 0.0
2018-Apr-12 20:30N 26°33' W 077°03'0 0.0
2018-Apr-12 20:00N 26°33' W 077°03'0 0.0
2018-Apr-12 19:30N 26°33' W 077°03'0 0.0
2018-Apr-12 19:00N 26°33' W 077°03'0 0.0
2018-Apr-12 18:30N 26°33' W 077°03'0 0.0
2018-Apr-12 18:00N 26°33' W 077°03'0 0.0
2018-Apr-12 17:30N 26°33' W 077°03'0 0.0
2018-Apr-12 17:00N 26°33' W 077°03'0 0.0
2018-Apr-12 16:30N 26°33' W 077°03'0 0.0
2018-Apr-12 16:00N 26°33' W 077°03'0 0.0
2018-Apr-12 15:30N 26°33' W 077°03'0 0.0
2018-Apr-12 15:00N 26°33' W 077°03'0 0.0
2018-Apr-12 14:30N 26°33' W 077°03'0 0.0
2018-Apr-12 14:00N 26°33' W 077°03'0 0.0
2018-Apr-12 13:30N 26°33' W 077°03'0 0.0
2018-Apr-12 13:00N 26°33' W 077°03'0 0.0
2018-Apr-12 12:30N 26°33' W 077°03'0 0.0
2018-Apr-12 11:57N 26°33' W 077°03'0 0.0
2018-Apr-12 11:30N 26°33' W 077°03'0 0.0
2018-Apr-12 11:00N 26°33' W 077°03'0 0.0
2018-Apr-12 10:30N 26°33' W 077°03'0 0.0
2018-Apr-12 10:00N 26°33' W 077°03'0 0.0
2018-Apr-12 09:30N 26°33' W 077°03'0 0.0
2018-Apr-12 09:00N 26°33' W 077°03'0 0.0
2018-Apr-12 08:30N 26°33' W 077°03'0 0.0
2018-Apr-12 08:00N 26°33' W 077°03'0 0.0
2018-Apr-12 07:30N 26°33' W 077°03'0 0.0
2018-Apr-12 07:00N 26°33' W 077°03'0 0.0
2018-Apr-12 06:30N 26°33' W 077°03'0 0.0
2018-Apr-12 06:00N 26°33' W 077°03'0 0.0
2018-Apr-12 05:30N 26°33' W 077°03'0 0.0
2018-Apr-12 05:00N 26°33' W 077°03'0 0.0
2018-Apr-12 04:30N 26°33' W 077°03'0 0.0
2018-Apr-12 04:00N 26°33' W 077°03'0 0.0
2018-Apr-12 03:30N 26°33' W 077°03'0 0.0
2018-Apr-12 03:00N 26°33' W 077°03'0 0.0
2018-Apr-12 02:30N 26°33' W 077°03'0 0.0
2018-Apr-12 02:00N 26°33' W 077°03'0 0.0
2018-Apr-12 01:30N 26°33' W 077°03'0 0.0
2018-Apr-12 00:59N 26°33' W 077°03'0 0.0
2018-Apr-12 00:30N 26°33' W 077°03'0 0.0
2018-Apr-11 23:57N 26°33' W 077°03'0 0.0
2018-Apr-11 23:30N 26°33' W 077°03'0 0.0
2018-Apr-11 23:00N 26°33' W 077°03'0 0.0
2018-Apr-11 22:30N 26°33' W 077°03'0 0.0
2018-Apr-11 22:00N 26°33' W 077°03'0 0.0
2018-Apr-11 21:30N 26°33' W 077°03'0 0.0
2018-Apr-11 21:00N 26°33' W 077°03'0 0.0
2018-Apr-11 20:30N 26°33' W 077°03'0 0.0
2018-Apr-11 20:00N 26°33' W 077°03'0 0.0
2018-Apr-11 19:30N 26°33' W 077°03'0 0.0
2018-Apr-11 19:00N 26°33' W 077°03'0 0.0
2018-Apr-11 18:30N 26°33' W 077°03'0 0.0
2018-Apr-11 18:00N 26°33' W 077°03'0 0.0
2018-Apr-11 17:26N 26°33' W 077°03'0 0.0
2018-Apr-11 17:00N 26°33' W 077°03'0 0.0
2018-Apr-11 16:30N 26°33' W 077°03'0 0.0
2018-Apr-11 16:00N 26°33' W 077°03'0 0.0
2018-Apr-11 15:29N 26°33' W 077°03'0 0.0
2018-Apr-11 15:00N 26°33' W 077°03'0 0.0
2018-Apr-11 14:30N 26°33' W 077°03'0 0.0
2018-Apr-11 14:00N 26°33' W 077°03'0 0.0
2018-Apr-11 13:30N 26°33' W 077°03'0 0.0
2018-Apr-11 13:00N 26°33' W 077°03'0 0.0
2018-Apr-11 12:29N 26°33' W 077°03'0 0.0
2018-Apr-11 11:59N 26°33' W 077°03'0 0.0
2018-Apr-11 11:29N 26°33' W 077°03'0 0.0
2018-Apr-11 11:00N 26°33' W 077°03'0 0.0
2018-Apr-11 10:29N 26°33' W 077°03'0 0.0
2018-Apr-11 09:59N 26°33' W 077°03'0 0.0
2018-Apr-11 09:29N 26°33' W 077°03'0 0.0
2018-Apr-11 09:00N 26°33' W 077°03'0 0.0
2018-Apr-11 08:29N 26°33' W 077°03'0 0.0
2018-Apr-11 08:00N 26°33' W 077°03'0 0.0
2018-Apr-11 07:30N 26°33' W 077°03'0 0.0
2018-Apr-11 06:59N 26°33' W 077°03'0 0.0
2018-Apr-11 06:30N 26°33' W 077°03'0 0.0
2018-Apr-11 05:59N 26°33' W 077°03'0 0.0
2018-Apr-11 05:30N 26°33' W 077°03'0 0.0
2018-Apr-11 05:00N 26°33' W 077°03'0 0.0
2018-Apr-11 04:29N 26°33' W 077°03'0 0.0
2018-Apr-11 03:59N 26°33' W 077°03'0 0.0
2018-Apr-11 03:29N 26°33' W 077°03'0 0.0
2018-Apr-11 02:59N 26°33' W 077°03'0 0.0
2018-Apr-11 02:29N 26°33' W 077°03'0 0.0
2018-Apr-11 01:59N 26°33' W 077°03'0 0.0
2018-Apr-11 01:29N 26°33' W 077°03'0 0.0
2018-Apr-11 01:00N 26°33' W 077°03'0 0.0
2018-Apr-11 00:30N 26°33' W 077°03'0 0.0
2018-Apr-11 00:00N 26°33' W 077°03'0 0.0
2018-Apr-10 23:30N 26°33' W 077°03'0 0.0
2018-Apr-10 23:00N 26°33' W 077°03'0 0.0
2018-Apr-10 22:30N 26°33' W 077°03'0 0.0
2018-Apr-10 22:00N 26°33' W 077°03'0 0.0
2018-Apr-10 21:30N 26°33' W 077°03'0 0.0
2018-Apr-10 21:00N 26°33' W 077°03'0 0.0
2018-Apr-10 20:30N 26°33' W 077°03'0 0.0
2018-Apr-10 20:00N 26°33' W 077°03'0 0.0
2018-Apr-10 19:30N 26°33' W 077°03'0 0.0
2018-Apr-10 18:59N 26°33' W 077°03'0 0.0
2018-Apr-10 18:30N 26°33' W 077°03'0 0.0
2018-Apr-10 18:00N 26°33' W 077°03'0 0.0
2018-Apr-10 17:30N 26°33' W 077°03'0 0.0
2018-Apr-10 17:00N 26°33' W 077°03'0 0.0
2018-Apr-10 16:30N 26°33' W 077°03'0 0.0
2018-Apr-10 16:00N 26°33' W 077°03'0 0.0
2018-Apr-10 15:30N 26°33' W 077°03'0 0.0
2018-Apr-10 15:00N 26°33' W 077°03'0 0.0
2018-Apr-10 14:30N 26°33' W 077°03'0 0.0
2018-Apr-10 14:00N 26°33' W 077°03'0 0.0
2018-Apr-10 13:29N 26°33' W 077°03'0 0.0
2018-Apr-10 13:00N 26°33' W 077°03'0 0.0
2018-Apr-10 12:30N 26°33' W 077°03'0 0.0
2018-Apr-10 12:00N 26°33' W 077°03'0 0.0
2018-Apr-10 11:30N 26°33' W 077°03'0 0.0
2018-Apr-10 11:00N 26°33' W 077°03'0 0.0
2018-Apr-10 10:30N 26°33' W 077°03'0 0.0
2018-Apr-10 10:00N 26°33' W 077°03'0 0.0
2018-Apr-10 09:30N 26°33' W 077°03'0 0.0
2018-Apr-10 09:00N 26°33' W 077°03'0 0.0
2018-Apr-10 08:30N 26°33' W 077°03'0 0.0
2018-Apr-10 07:58N 26°33' W 077°03'0 0.0
2018-Apr-10 07:30N 26°33' W 077°03'0 0.0
2018-Apr-10 07:00N 26°33' W 077°03'0 0.0
2018-Apr-10 06:30N 26°33' W 077°03'0 0.0
2018-Apr-10 06:00N 26°33' W 077°03'0 0.0
2018-Apr-10 05:29N 26°33' W 077°03'0 0.0
2018-Apr-10 05:00N 26°33' W 077°03'0 0.0
2018-Apr-10 04:30N 26°33' W 077°03'0 0.0
2018-Apr-10 04:00N 26°33' W 077°03'0 0.0
2018-Apr-10 03:30N 26°33' W 077°03'0 0.0
2018-Apr-10 03:00N 26°33' W 077°03'0 0.0
2018-Apr-10 02:30N 26°33' W 077°03'0 0.0
2018-Apr-10 01:59N 26°33' W 077°03'0 0.0
2018-Apr-10 01:30N 26°33' W 077°03'0 0.0
2018-Apr-10 01:00N 26°33' W 077°03'0 0.0
2018-Apr-10 00:30N 26°33' W 077°03'0 0.0
2018-Apr-10 00:00N 26°33' W 077°03'0 0.0
2018-Apr-09 23:30N 26°33' W 077°03'0 0.0
2018-Apr-09 23:00N 26°33' W 077°03'0 0.0
2018-Apr-09 22:30N 26°33' W 077°03'0 0.0
2018-Apr-09 22:00N 26°33' W 077°03'0 0.0
2018-Apr-09 21:30N 26°33' W 077°03'0 0.0
2018-Apr-09 21:00N 26°33' W 077°03'0 0.0
2018-Apr-09 20:30N 26°33' W 077°03'0 0.0
2018-Apr-09 20:00N 26°33' W 077°03'0 0.0
2018-Apr-09 19:29N 26°33' W 077°03'  

Dump ship's entire track history